createdAt,value
2023-02-19T00:02:48.831Z,-6.91
2023-02-19T00:08:10.938Z,-6.86
2023-02-19T00:13:36.891Z,-6.89
2023-02-19T00:19:00.454Z,-6.88
2023-02-19T00:24:22.906Z,-6.93
2023-02-19T00:30:02.322Z,-6.85
2023-02-19T00:35:25.532Z,-6.88
2023-02-19T00:40:47.629Z,-7.04
2023-02-19T00:46:11.937Z,-6.99
2023-02-19T00:51:37.327Z,-7.21
2023-02-19T00:56:59.486Z,-7.08
2023-02-19T01:02:21.542Z,-6.98
2023-02-19T01:07:44.731Z,-6.89
2023-02-19T01:13:06.539Z,-7.10
2023-02-19T01:18:28.420Z,-7.23
2023-02-19T01:23:51.991Z,-7.02
2023-02-19T01:29:14.181Z,-7.00
2023-02-19T01:34:36.336Z,-6.97
2023-02-19T01:39:58.085Z,-6.98
2023-02-19T01:45:23.590Z,-6.90
2023-02-19T01:50:51.034Z,-6.97
2023-02-19T01:56:16.484Z,-6.95
2023-02-19T02:01:40.278Z,-6.94
2023-02-19T02:07:25.053Z,-6.99
2023-02-19T02:12:48.143Z,-6.95
2023-02-19T02:18:17.148Z,-7.05
2023-02-19T02:24:10.118Z,-7.08
2023-02-19T02:30:04.005Z,-7.03
2023-02-19T02:35:38.721Z,-7.20
2023-02-19T02:41:03.060Z,-7.24
2023-02-19T02:46:36.358Z,-7.13
2023-02-19T02:52:22.010Z,-7.21
2023-02-19T02:57:44.255Z,-7.25
2023-02-19T03:03:10.254Z,-7.27
2023-02-19T03:08:43.650Z,-7.28
2023-02-19T03:14:37.869Z,-7.14
2023-02-19T03:20:04.410Z,-7.34
2023-02-19T03:32:43.358Z,-7.21
2023-02-19T03:38:19.135Z,-7.20
2023-02-19T03:44:14.329Z,-7.12
2023-02-19T03:50:03.807Z,-7.08
2023-02-19T03:56:05.797Z,-7.10
2023-02-19T04:01:47.861Z,-7.10
2023-02-19T04:07:11.234Z,-7.11
2023-02-19T04:12:40.463Z,-7.18
2023-02-19T04:18:21.422Z,-7.41
2023-02-19T04:23:46.072Z,-7.41
2023-02-19T04:29:08.408Z,-7.33
2023-02-19T04:34:30.265Z,-7.32
2023-02-19T04:39:52.285Z,-7.33
2023-02-19T04:45:14.225Z,-7.36
2023-02-19T04:50:39.623Z,-7.45
2023-02-19T04:56:32.446Z,-7.30
2023-02-19T05:01:58.569Z,-7.44
2023-02-19T05:07:23.008Z,-7.35
2023-02-19T05:12:48.217Z,-7.47
2023-02-19T05:18:10.089Z,-7.48
2023-02-19T05:23:35.542Z,-7.38
2023-02-19T05:29:00.246Z,-7.56
2023-02-19T05:34:24.552Z,-7.58
2023-02-19T05:39:46.463Z,-7.74
2023-02-19T05:45:08.702Z,-7.67
2023-02-19T05:50:33.743Z,-7.51
2023-02-19T05:56:21.473Z,-7.54
2023-02-19T06:01:43.750Z,-7.49
2023-02-19T06:07:05.625Z,-7.48
2023-02-19T06:12:27.441Z,-7.34
2023-02-19T06:17:49.718Z,-7.39
2023-02-19T06:23:11.214Z,-7.41
2023-02-19T06:28:33.192Z,-7.43
2023-02-19T06:33:55.843Z,-7.26
2023-02-19T06:39:17.977Z,-7.43
2023-02-19T06:44:39.761Z,-7.15
2023-02-19T06:50:01.620Z,-7.25
2023-02-19T06:55:25.155Z,-7.34
2023-02-19T07:00:47.001Z,-7.21
2023-02-19T07:06:08.784Z,-7.22
2023-02-19T07:11:33.058Z,-7.28
2023-02-19T07:16:54.895Z,-7.35
2023-02-19T07:22:16.719Z,-7.22
2023-02-19T07:27:38.861Z,-7.13
2023-02-19T07:33:01.313Z,-7.23
2023-02-19T07:38:25.289Z,-7.22
2023-02-19T07:43:47.270Z,-7.16
2023-02-19T07:49:09.231Z,-7.35
2023-02-19T07:54:31.062Z,-7.21
2023-02-19T07:59:53.077Z,-7.21
2023-02-19T08:05:14.745Z,-7.15
2023-02-19T08:10:55.241Z,-7.25
2023-02-19T08:16:29.634Z,-6.93
2023-02-19T08:21:55.415Z,-7.01
2023-02-19T08:27:17.194Z,-7.11
2023-02-19T08:32:39.112Z,-6.98
2023-02-19T08:38:01.384Z,-6.97
2023-02-19T08:43:23.326Z,-6.99
2023-02-19T08:48:45.428Z,-6.94
2023-02-19T08:54:06.810Z,-6.95
2023-02-19T08:59:29.990Z,-6.96
2023-02-19T09:04:51.772Z,-7.09
2023-02-19T09:10:14.734Z,-6.78
2023-02-19T09:15:39.163Z,-6.87
2023-02-19T09:21:02.454Z,-6.72
2023-02-19T09:26:25.830Z,-6.64
2023-02-19T09:31:50.895Z,-6.76
2023-02-19T09:37:13.364Z,-7.19
2023-02-19T09:42:35.715Z,-7.12
2023-02-19T09:48:03.536Z,-6.82
2023-02-19T09:53:29.628Z,-6.84
2023-02-19T09:58:57.419Z,-6.84
2023-02-19T10:04:21.962Z,-6.89
2023-02-19T10:09:49.662Z,-7.07
2023-02-19T10:15:31.478Z,-6.82
2023-02-19T10:20:53.879Z,-6.65
2023-02-19T10:26:15.906Z,-6.63
2023-02-19T10:31:50.577Z,-6.47
2023-02-19T10:37:22.787Z,-6.51
2023-02-19T10:42:49.711Z,-6.53
2023-02-19T10:48:32.020Z,-6.62
2023-02-19T10:54:07.275Z,-6.45
2023-02-19T10:59:32.289Z,-6.52
2023-02-19T11:05:03.651Z,-6.51
2023-02-19T11:10:31.041Z,-6.66
2023-02-19T11:15:55.881Z,-6.57
2023-02-19T11:21:29.793Z,-6.78
2023-02-19T11:26:56.585Z,-6.53
2023-02-19T11:32:31.423Z,-6.65
2023-02-19T11:38:02.334Z,-6.74
2023-02-19T11:43:54.091Z,-6.76
2023-02-19T11:49:29.478Z,-6.77
2023-02-19T11:54:58.319Z,-7.09
2023-02-19T12:00:29.362Z,-6.60
2023-02-19T12:06:03.054Z,-6.56
2023-02-19T12:11:24.896Z,-6.61
2023-02-19T12:16:49.754Z,-6.80
2023-02-19T12:22:20.805Z,-6.80
2023-02-19T12:28:13.925Z,-6.68
2023-02-19T12:33:54.080Z,-6.69
2023-02-19T12:39:46.469Z,-6.62
2023-02-19T12:45:23.220Z,-6.49
2023-02-19T12:50:53.951Z,-6.43
2023-02-19T12:56:24.149Z,-6.51
2023-02-19T13:02:03.651Z,-6.46
2023-02-19T13:07:34.144Z,-6.50
2023-02-19T13:12:59.067Z,-6.55
2023-02-19T13:18:26.908Z,-6.67
2023-02-19T13:24:00.579Z,-6.63
2023-02-19T13:29:31.448Z,-6.67
2023-02-19T13:35:02.152Z,-6.68
2023-02-19T13:40:33.839Z,-6.71
2023-02-19T13:45:59.886Z,-6.68
2023-02-19T13:51:24.893Z,-6.67
2023-02-19T13:56:47.082Z,-6.67
2023-02-19T14:02:22.729Z,-6.63
2023-02-19T14:07:55.929Z,-6.68
2023-02-19T14:13:48.435Z,-6.60
2023-02-19T14:19:45.214Z,-6.56
2023-02-19T14:25:31.561Z,-6.57
2023-02-19T14:31:25.873Z,-6.56
2023-02-19T14:36:54.159Z,-6.75
2023-02-19T14:42:27.756Z,-6.74
2023-02-19T14:48:09.556Z,-6.71
2023-02-19T14:53:47.495Z,-6.63
2023-02-19T14:59:26.683Z,-6.56
2023-02-19T15:12:58.975Z,-6.73
2023-02-19T15:18:38.416Z,-6.49
2023-02-19T15:24:09.658Z,-6.54
2023-02-19T15:29:54.650Z,-6.60
2023-02-19T15:35:20.595Z,-6.61
2023-02-19T15:40:46.504Z,-6.85
2023-02-19T15:46:27.288Z,-6.76
2023-02-19T15:52:00.821Z,-6.70
2023-02-19T15:57:31.139Z,-6.77
2023-02-19T16:02:53.317Z,-6.98
2023-02-19T16:08:15.514Z,-6.90
2023-02-19T16:13:37.499Z,-7.02
2023-02-19T16:19:01.824Z,-6.92
2023-02-19T16:24:37.103Z,-6.88
2023-02-19T16:30:03.429Z,-6.86
2023-02-19T16:35:40.964Z,-6.97
2023-02-19T16:41:20.025Z,-6.97
2023-02-19T16:46:42.183Z,-6.89
2023-02-19T16:52:05.133Z,-7.08
2023-02-19T16:57:27.225Z,-7.12
2023-02-19T17:02:58.391Z,-7.04
2023-02-19T17:08:28.661Z,-7.20
2023-02-19T17:13:50.826Z,-7.12
2023-02-19T17:19:20.142Z,-7.24
2023-02-19T17:24:42.597Z,-7.13
2023-02-19T17:30:13.989Z,-7.31
2023-02-19T17:35:36.470Z,-7.20
2023-02-19T17:40:58.327Z,-7.24
2023-02-19T17:46:23.390Z,-7.36
2023-02-19T17:51:45.487Z,-7.36
2023-02-19T17:57:07.108Z,-7.37
2023-02-19T18:02:28.923Z,-7.55
2023-02-19T18:07:51.530Z,-7.50
2023-02-19T18:13:13.373Z,-7.60
2023-02-19T18:18:35.193Z,-7.63
2023-02-19T18:23:57.030Z,-7.51
2023-02-19T18:29:20.471Z,-7.68
2023-02-19T18:34:42.398Z,-7.91
2023-02-19T18:40:08.125Z,-7.97
2023-02-19T18:45:35.626Z,-8.07
2023-02-19T18:51:00.405Z,-7.96
2023-02-19T18:56:25.437Z,-8.08
2023-02-19T19:01:49.987Z,-7.95
2023-02-19T19:07:15.631Z,-8.17
2023-02-19T19:12:37.576Z,-8.20
2023-02-19T19:18:01.717Z,-8.34
2023-02-19T19:23:24.039Z,-8.44
2023-02-19T19:28:47.037Z,-8.40
2023-02-19T19:34:10.128Z,-8.68
2023-02-19T19:39:32.121Z,-8.41
2023-02-19T19:44:54.228Z,-8.38
2023-02-19T19:50:19.121Z,-8.59
2023-02-19T19:55:41.014Z,-8.68
2023-02-19T20:01:02.844Z,-8.70
2023-02-19T20:06:29.983Z,-8.69
2023-02-19T20:11:53.417Z,-8.68
2023-02-19T20:17:15.693Z,-8.80
2023-02-19T20:22:39.675Z,-8.70
2023-02-19T20:28:01.444Z,-8.65
2023-02-19T20:33:23.721Z,-8.61
2023-02-19T20:38:46.436Z,-8.59
2023-02-19T20:44:08.653Z,-8.76
2023-02-19T20:49:32.421Z,-8.70
2023-02-19T20:54:56.792Z,-8.68
2023-02-19T21:00:19.760Z,-8.81
2023-02-19T21:05:43.446Z,-8.83
2023-02-19T21:11:06.068Z,-8.90
2023-02-19T21:16:30.433Z,-8.84
2023-02-19T21:21:52.469Z,-8.89
2023-02-19T21:27:14.488Z,-8.96
2023-02-19T21:32:39.712Z,-8.83
2023-02-19T21:38:01.752Z,-8.87
2023-02-19T21:43:23.947Z,-8.87
2023-02-19T21:48:51.842Z,-8.91
2023-02-19T21:54:22.154Z,-8.97
2023-02-19T21:59:44.474Z,-8.93
2023-02-19T22:05:06.975Z,-8.92
2023-02-19T22:10:30.356Z,-8.98
2023-02-19T22:15:52.387Z,-9.07
2023-02-19T22:21:14.691Z,-8.99
2023-02-19T22:26:36.558Z,-9.05
2023-02-19T22:31:58.984Z,-9.16
2023-02-19T22:37:21.282Z,-9.13
2023-02-19T22:42:43.206Z,-9.19
2023-02-19T22:48:05.699Z,-9.15
2023-02-19T22:53:27.277Z,-9.12
2023-02-19T22:58:49.584Z,-9.20
2023-02-19T23:04:11.998Z,-9.28
2023-02-19T23:09:34.006Z,-9.23
2023-02-19T23:14:58.200Z,-9.26
2023-02-19T23:20:20.041Z,-9.33
2023-02-19T23:25:41.940Z,-9.38
2023-02-19T23:31:06.081Z,-9.48
2023-02-19T23:36:29.270Z,-9.38
2023-02-19T23:41:53.514Z,-9.35
2023-02-19T23:47:16.085Z,-9.48
2023-02-19T23:52:38.080Z,-9.44
2023-02-19T23:58:00.430Z,-9.51
